createdAt,value
2022-11-14T00:01:12.521Z,12.71
2022-11-14T00:03:39.497Z,12.68
2022-11-14T00:06:07.421Z,12.67
2022-11-14T00:08:34.694Z,12.61
2022-11-14T00:11:01.465Z,12.63
2022-11-14T00:13:28.196Z,12.65
2022-11-14T00:15:55.189Z,12.64
2022-11-14T00:18:22.430Z,12.61
2022-11-14T00:20:51.269Z,12.57
2022-11-14T00:23:18.612Z,12.59
2022-11-14T00:25:46.245Z,12.51
2022-11-14T00:28:13.218Z,12.45
2022-11-14T00:30:39.958Z,12.45
2022-11-14T00:33:06.721Z,12.46
2022-11-14T00:35:33.424Z,12.42
2022-11-14T00:38:00.181Z,12.39
2022-11-14T00:40:28.374Z,12.35
2022-11-14T00:42:55.103Z,12.33
2022-11-14T00:45:21.812Z,12.28
2022-11-14T00:47:48.522Z,12.23
2022-11-14T00:50:17.336Z,12.24
2022-11-14T00:52:44.124Z,12.21
2022-11-14T00:55:10.894Z,12.14
2022-11-14T00:57:38.358Z,12.11
2022-11-14T01:00:06.570Z,12.06
2022-11-14T01:02:33.307Z,12.02
2022-11-14T01:05:00.671Z,12.02
2022-11-14T01:07:27.580Z,12.01
2022-11-14T01:09:54.291Z,11.97
2022-11-14T01:12:21.053Z,11.94
2022-11-14T01:14:48.019Z,11.95
2022-11-14T01:17:14.732Z,11.93
2022-11-14T01:19:41.549Z,11.96
2022-11-14T01:22:08.658Z,11.99
2022-11-14T01:24:35.525Z,11.99
2022-11-14T01:27:02.547Z,11.99
2022-11-14T01:29:29.593Z,11.97
2022-11-14T01:31:56.731Z,11.98
2022-11-14T01:34:26.947Z,11.97
2022-11-14T01:36:53.624Z,12.00
2022-11-14T01:39:20.349Z,12.05
2022-11-14T01:41:47.384Z,12.02
2022-11-14T01:44:37.760Z,12.00
2022-11-14T01:47:05.429Z,11.96
2022-11-14T01:49:39.218Z,11.95
2022-11-14T01:52:17.359Z,11.98
2022-11-14T01:54:48.311Z,11.95
2022-11-14T01:57:20.368Z,11.97
2022-11-14T01:59:52.075Z,11.93
2022-11-14T02:02:21.912Z,11.93
2022-11-14T02:05:07.013Z,11.95
2022-11-14T02:07:41.479Z,11.96
2022-11-14T02:10:15.356Z,11.93
2022-11-14T02:12:42.467Z,11.88
2022-11-14T02:15:09.923Z,11.89
2022-11-14T02:17:36.843Z,11.89
2022-11-14T02:20:05.369Z,11.89
2022-11-14T02:22:32.582Z,11.87
2022-11-14T02:24:59.444Z,11.87
2022-11-14T02:27:26.821Z,11.90
2022-11-14T02:29:53.609Z,11.90
2022-11-14T02:32:20.321Z,11.89
2022-11-14T02:34:47.095Z,11.90
2022-11-14T02:37:14.304Z,11.89
2022-11-14T02:39:41.600Z,11.91
2022-11-14T02:42:08.331Z,11.92
2022-11-14T02:44:35.101Z,11.92
2022-11-14T02:47:01.956Z,11.91
2022-11-14T02:49:28.785Z,11.86
2022-11-14T02:51:55.456Z,11.86
2022-11-14T02:54:22.132Z,11.89
2022-11-14T02:56:48.853Z,11.91
2022-11-14T02:59:15.535Z,11.92
2022-11-14T03:01:42.420Z,11.88
2022-11-14T03:04:10.687Z,11.83
2022-11-14T03:06:37.510Z,11.81
2022-11-14T03:09:04.469Z,11.80
2022-11-14T03:11:31.335Z,11.81
2022-11-14T03:13:59.965Z,11.80
2022-11-14T03:16:27.337Z,11.81
2022-11-14T03:18:54.135Z,11.81
2022-11-14T03:21:22.941Z,11.82
2022-11-14T03:23:50.091Z,11.81
2022-11-14T03:26:16.917Z,11.82
2022-11-14T03:28:43.919Z,11.87
2022-11-14T03:31:13.132Z,11.91
2022-11-14T03:33:40.280Z,11.89
2022-11-14T03:36:08.168Z,11.84
2022-11-14T03:38:35.213Z,11.85
2022-11-14T03:41:02.062Z,11.85
2022-11-14T03:43:33.439Z,11.83
2022-11-14T03:46:02.296Z,11.81
2022-11-14T03:48:30.280Z,11.81
2022-11-14T03:50:57.972Z,11.83
2022-11-14T03:53:25.116Z,11.83
2022-11-14T03:55:52.678Z,11.84
2022-11-14T03:58:19.406Z,11.82
2022-11-14T04:00:46.397Z,11.84
2022-11-14T04:03:13.196Z,11.86
2022-11-14T04:05:40.083Z,11.86
2022-11-14T04:08:07.708Z,11.84
2022-11-14T04:10:34.380Z,11.82
2022-11-14T04:13:01.089Z,11.80
2022-11-14T04:15:27.804Z,11.80
2022-11-14T04:17:54.505Z,11.80
2022-11-14T04:20:21.258Z,11.85
2022-11-14T04:22:48.030Z,11.87
2022-11-14T04:25:14.830Z,11.90
2022-11-14T04:27:41.769Z,11.91
2022-11-14T04:30:12.371Z,11.91
2022-11-14T04:32:39.084Z,11.86
2022-11-14T04:35:06.166Z,11.83
2022-11-14T04:37:32.980Z,11.82
2022-11-14T04:40:02.735Z,11.81
2022-11-14T04:42:29.484Z,11.82
2022-11-14T04:44:56.258Z,11.83
2022-11-14T04:47:23.152Z,11.82
2022-11-14T04:49:49.821Z,11.81
2022-11-14T04:52:16.533Z,11.78
2022-11-14T04:54:43.277Z,11.76
2022-11-14T04:57:10.042Z,11.72
2022-11-14T04:59:36.755Z,11.70
2022-11-14T05:02:03.636Z,11.67
2022-11-14T05:04:31.138Z,11.69
2022-11-14T05:06:58.001Z,11.67
2022-11-14T05:09:24.784Z,11.65
2022-11-14T05:11:51.607Z,11.63
2022-11-14T05:14:18.553Z,11.60
2022-11-14T05:16:45.301Z,11.61
2022-11-14T05:19:12.029Z,11.62
2022-11-14T05:21:38.703Z,11.67
2022-11-14T05:24:05.645Z,11.67
2022-11-14T05:26:32.366Z,11.64
2022-11-14T05:28:59.212Z,11.62
2022-11-14T05:31:25.925Z,11.61
2022-11-14T05:33:52.711Z,11.59
2022-11-14T05:36:19.631Z,11.60
2022-11-14T05:38:46.297Z,11.60
2022-11-14T05:41:15.377Z,11.58
2022-11-14T05:43:42.437Z,11.51
2022-11-14T05:46:13.040Z,11.49
2022-11-14T05:48:40.680Z,11.46
2022-11-14T05:51:10.199Z,11.46
2022-11-14T05:53:37.121Z,11.45
2022-11-14T05:56:10.589Z,11.43
2022-11-14T05:58:37.421Z,11.42
2022-11-14T06:01:13.228Z,11.42
2022-11-14T06:03:42.936Z,11.44
2022-11-14T06:06:12.504Z,11.43
2022-11-14T06:08:40.194Z,11.43
2022-11-14T06:11:09.921Z,11.40
2022-11-14T06:13:37.310Z,11.37
2022-11-14T06:16:07.096Z,11.36
2022-11-14T06:18:34.687Z,11.33
2022-11-14T06:21:05.824Z,11.34
2022-11-14T06:23:32.663Z,11.33
2022-11-14T06:26:05.354Z,11.34
2022-11-14T06:28:32.921Z,11.35
2022-11-14T06:31:01.366Z,11.34
2022-11-14T06:33:29.499Z,11.32
2022-11-14T06:36:00.275Z,11.30
2022-11-14T06:38:27.857Z,11.27
2022-11-14T06:41:21.784Z,11.26
2022-11-14T06:43:50.715Z,11.30
2022-11-14T06:46:19.781Z,11.33
2022-11-14T06:48:47.645Z,11.33
2022-11-14T06:51:15.688Z,11.27
2022-11-14T06:53:43.339Z,11.27
2022-11-14T06:56:12.695Z,11.25
2022-11-14T06:58:42.870Z,11.25
2022-11-14T07:01:16.231Z,11.21
2022-11-14T07:03:44.363Z,11.18
2022-11-14T07:06:13.761Z,11.18
2022-11-14T07:08:40.701Z,11.15
2022-11-14T07:11:08.945Z,11.12
2022-11-14T07:13:36.470Z,11.12
2022-11-14T07:16:03.842Z,11.11
2022-11-14T07:18:32.317Z,11.08
2022-11-14T07:21:00.884Z,11.05
2022-11-14T07:23:27.970Z,11.04
2022-11-14T07:25:54.753Z,11.04
2022-11-14T07:28:21.508Z,11.02
2022-11-14T07:30:48.314Z,11.01
2022-11-14T07:33:14.971Z,11.01
2022-11-14T07:35:41.773Z,10.99
2022-11-14T07:38:08.496Z,10.99
2022-11-14T07:40:35.273Z,11.00
2022-11-14T07:43:02.764Z,10.98
2022-11-14T07:45:29.996Z,10.96
2022-11-14T07:47:58.125Z,10.94
2022-11-14T07:50:25.999Z,10.96
2022-11-14T07:52:54.168Z,10.94
2022-11-14T07:55:21.577Z,10.95
2022-11-14T07:57:49.564Z,10.98
2022-11-14T08:00:17.119Z,10.96
2022-11-14T08:02:45.552Z,10.98
2022-11-14T08:05:12.465Z,10.97
2022-11-14T08:07:39.267Z,10.97
2022-11-14T08:10:06.662Z,10.98
2022-11-14T08:12:33.441Z,11.01
2022-11-14T08:15:00.187Z,11.00
2022-11-14T08:17:26.958Z,10.98
2022-11-14T08:19:53.690Z,10.98
2022-11-14T08:22:20.400Z,10.97
2022-11-14T08:24:47.087Z,10.97
2022-11-14T08:27:13.782Z,10.95
2022-11-14T08:29:40.500Z,10.97
2022-11-14T08:32:07.509Z,11.00
2022-11-14T08:34:34.289Z,11.00
2022-11-14T08:37:02.183Z,11.03
2022-11-14T08:39:29.298Z,11.06
2022-11-14T08:41:56.128Z,11.07
2022-11-14T08:44:22.878Z,11.10
2022-11-14T08:46:50.664Z,11.11
2022-11-14T08:49:17.509Z,11.12
2022-11-14T08:51:44.225Z,11.11
2022-11-14T08:54:11.189Z,11.14
2022-11-14T08:56:37.913Z,11.19
2022-11-14T08:59:04.779Z,11.21
2022-11-14T09:01:32.913Z,11.28
2022-11-14T09:04:00.553Z,11.32
2022-11-14T09:06:29.330Z,11.37
2022-11-14T09:08:56.264Z,11.44
2022-11-14T09:11:23.028Z,11.49
2022-11-14T09:13:49.797Z,11.51
2022-11-14T09:16:16.582Z,11.54
2022-11-14T09:18:43.577Z,11.54
2022-11-14T09:21:11.035Z,11.56
2022-11-14T09:23:37.836Z,11.58
2022-11-14T09:26:06.614Z,11.58
2022-11-14T09:28:33.549Z,11.61
2022-11-14T09:31:06.715Z,11.62
2022-11-14T09:33:34.588Z,11.62
2022-11-14T09:36:03.871Z,11.62
2022-11-14T09:38:36.996Z,11.61
2022-11-14T09:41:11.074Z,11.61
2022-11-14T09:44:05.542Z,11.60
2022-11-14T09:46:37.938Z,11.60
2022-11-14T09:49:12.030Z,11.59
2022-11-14T09:51:47.573Z,11.56
2022-11-14T09:54:26.139Z,11.54
2022-11-14T09:56:54.363Z,11.52
2022-11-14T09:59:21.274Z,11.54
2022-11-14T10:01:54.595Z,11.53
2022-11-14T10:04:34.086Z,11.58
2022-11-14T10:07:15.641Z,11.58
2022-11-14T10:09:52.488Z,11.60
2022-11-14T10:12:27.432Z,11.63
2022-11-14T10:14:58.033Z,11.63
2022-11-14T10:17:42.403Z,11.68
2022-11-14T10:20:24.252Z,11.72
2022-11-14T10:23:01.157Z,11.75
2022-11-14T10:25:42.506Z,11.80
2022-11-14T10:28:22.787Z,11.79
2022-11-14T10:31:10.328Z,11.79
2022-11-14T10:33:57.634Z,11.82
2022-11-14T10:36:39.252Z,11.83
2022-11-14T10:39:16.493Z,11.84
2022-11-14T10:41:57.909Z,11.83
2022-11-14T10:44:36.247Z,11.84
2022-11-14T10:47:10.707Z,11.85
2022-11-14T10:49:38.692Z,11.87
2022-11-14T10:52:13.092Z,11.92
2022-11-14T10:55:08.294Z,11.94
2022-11-14T10:57:35.439Z,11.93
2022-11-14T11:00:11.658Z,11.94
2022-11-14T11:02:56.764Z,11.97
2022-11-14T11:05:29.824Z,12.00
2022-11-14T11:08:42.064Z,12.01
2022-11-14T11:11:29.764Z,12.01
2022-11-14T11:14:00.417Z,12.03
2022-11-14T11:16:29.815Z,12.03
2022-11-14T11:19:27.008Z,12.04
2022-11-14T11:21:53.901Z,12.03
2022-11-14T11:24:35.027Z,11.99
2022-11-14T11:27:20.697Z,11.96
2022-11-14T11:29:47.478Z,11.97
2022-11-14T11:32:26.180Z,11.99
2022-11-14T11:34:53.650Z,11.98
2022-11-14T11:37:36.309Z,12.00
2022-11-14T11:40:06.867Z,12.06
2022-11-14T11:43:23.736Z,12.12
2022-11-14T11:45:24.071Z,12.12
2022-11-14T11:47:59.369Z,12.06
2022-11-14T11:50:26.206Z,12.00
2022-11-14T11:53:17.606Z,11.96
2022-11-14T11:55:48.169Z,11.93
2022-11-14T11:58:28.636Z,11.87
2022-11-14T12:00:55.679Z,11.85
2022-11-14T12:03:25.684Z,11.84
2022-11-14T12:06:05.967Z,11.89
2022-11-14T12:08:46.347Z,11.92
2022-11-14T12:11:21.364Z,11.99
2022-11-14T12:14:16.207Z,12.04
2022-11-14T12:17:01.380Z,12.11
2022-11-14T12:19:50.285Z,12.18
2022-11-14T12:22:51.991Z,12.32
2022-11-14T12:26:06.229Z,12.46
2022-11-14T12:29:00.944Z,12.54
2022-11-14T12:31:32.405Z,12.60
2022-11-14T12:34:01.131Z,12.70
2022-11-14T12:36:31.450Z,12.82
2022-11-14T12:38:59.966Z,12.93
2022-11-14T12:41:36.450Z,13.02
2022-11-14T12:44:34.744Z,13.00
2022-11-14T12:47:07.564Z,12.91
2022-11-14T12:49:52.880Z,12.84
2022-11-14T12:52:39.870Z,12.76
2022-11-14T12:55:18.780Z,12.73
2022-11-14T12:58:07.298Z,12.70
2022-11-14T13:01:06.461Z,12.69
2022-11-14T13:04:10.149Z,12.68
2022-11-14T13:06:36.845Z,12.65
2022-11-14T13:09:32.412Z,12.65
2022-11-14T13:12:18.308Z,12.65
2022-11-14T13:15:13.157Z,12.68
2022-11-14T13:17:58.584Z,12.72
2022-11-14T13:20:45.649Z,12.75
2022-11-14T13:23:30.377Z,12.81
2022-11-14T13:26:13.445Z,12.84
2022-11-14T13:28:50.972Z,12.90
2022-11-14T13:31:22.029Z,12.95
2022-11-14T13:33:52.268Z,13.04
2022-11-14T13:36:35.590Z,13.20
2022-11-14T13:39:21.046Z,13.31
2022-11-14T13:42:29.303Z,13.45
2022-11-14T13:45:32.851Z,13.55
2022-11-14T13:48:37.181Z,13.66
2022-11-14T13:51:36.294Z,13.75
2022-11-14T13:53:56.399Z,13.85
2022-11-14T13:56:35.958Z,13.79
2022-11-14T13:59:20.907Z,13.71
2022-11-14T14:02:10.485Z,13.65
2022-11-14T14:05:05.456Z,13.53
2022-11-14T14:07:50.879Z,13.51
2022-11-14T14:10:20.411Z,13.48
2022-11-14T14:12:56.030Z,13.45
2022-11-14T14:15:32.642Z,13.32
2022-11-14T14:18:32.946Z,13.23
2022-11-14T14:20:59.729Z,13.10
2022-11-14T14:24:14.570Z,13.00
2022-11-14T14:27:10.300Z,12.88
2022-11-14T14:29:39.876Z,12.75
2022-11-14T14:32:13.333Z,12.68
2022-11-14T14:34:41.974Z,12.61
2022-11-14T14:37:27.850Z,12.48
2022-11-14T14:40:09.101Z,12.34
2022-11-14T14:42:41.461Z,12.22
2022-11-14T14:45:16.462Z,12.09
2022-11-14T14:47:50.510Z,11.98
2022-11-14T14:50:34.875Z,11.91
2022-11-14T14:53:03.836Z,11.79
2022-11-14T14:55:33.528Z,11.72
2022-11-14T14:58:38.439Z,11.62
2022-11-14T15:01:07.223Z,11.55
2022-11-14T15:03:49.044Z,11.50
2022-11-14T15:06:31.978Z,11.43
2022-11-14T15:09:26.369Z,11.37
2022-11-14T15:11:58.390Z,11.34
2022-11-14T15:14:29.366Z,11.28
2022-11-14T15:16:59.232Z,11.23
2022-11-14T15:19:39.888Z,11.17
2022-11-14T15:22:10.864Z,11.13
2022-11-14T15:24:37.620Z,11.12
2022-11-14T15:27:06.512Z,11.12
2022-11-14T15:29:33.502Z,11.07
2022-11-14T15:32:02.774Z,11.02
2022-11-14T15:34:37.927Z,10.98
2022-11-14T15:37:14.466Z,10.93
2022-11-14T15:39:42.128Z,10.87
2022-11-14T15:42:38.280Z,10.84
2022-11-14T15:45:25.370Z,10.81
2022-11-14T15:48:05.078Z,10.74
2022-11-14T15:50:34.097Z,10.73
2022-11-14T15:53:02.559Z,10.69
2022-11-14T15:55:29.579Z,10.65
2022-11-14T15:58:21.478Z,10.61
2022-11-14T16:00:53.385Z,10.55
2022-11-14T16:03:22.033Z,10.52
2022-11-14T16:05:48.954Z,10.49
2022-11-14T16:08:15.719Z,10.45
2022-11-14T16:10:42.481Z,10.38
2022-11-14T16:13:11.092Z,10.33
2022-11-14T16:15:37.925Z,10.30
2022-11-14T16:18:06.035Z,10.26
2022-11-14T16:20:38.015Z,10.22
2022-11-14T16:23:05.727Z,10.17
2022-11-14T16:25:32.967Z,10.12
2022-11-14T16:27:59.819Z,10.09
2022-11-14T16:30:27.898Z,10.07
2022-11-14T16:32:54.659Z,10.04
2022-11-14T16:35:25.748Z,10.02
2022-11-14T16:37:54.882Z,9.97
2022-11-14T16:40:25.596Z,9.92
2022-11-14T16:42:55.165Z,9.89
2022-11-14T16:45:22.384Z,9.86
2022-11-14T16:47:50.083Z,9.83
2022-11-14T16:50:18.513Z,9.82
2022-11-14T16:52:45.225Z,9.82
2022-11-14T16:55:12.842Z,9.79
2022-11-14T16:57:40.148Z,9.76
2022-11-14T17:00:10.858Z,9.75
2022-11-14T17:02:37.899Z,9.74
2022-11-14T17:05:04.937Z,9.73
2022-11-14T17:07:33.559Z,9.70
2022-11-14T17:10:00.664Z,9.69
2022-11-14T17:12:28.654Z,9.69
2022-11-14T17:14:55.382Z,9.68
2022-11-14T17:17:22.081Z,9.65
2022-11-14T17:19:49.096Z,9.67
2022-11-14T17:22:17.533Z,9.66
2022-11-14T17:24:44.890Z,9.64
2022-11-14T17:27:13.072Z,9.61
2022-11-14T17:29:40.161Z,9.60
2022-11-14T17:32:06.990Z,9.64
2022-11-14T17:34:33.793Z,9.62
2022-11-14T17:37:00.478Z,9.60
2022-11-14T17:39:27.327Z,9.57
2022-11-14T17:41:54.167Z,9.55
2022-11-14T17:44:21.930Z,9.54
2022-11-14T17:46:48.955Z,9.54
2022-11-14T17:49:15.672Z,9.53
2022-11-14T17:51:42.829Z,9.54
2022-11-14T17:54:09.562Z,9.53
2022-11-14T17:56:42.629Z,9.55
2022-11-14T17:59:12.607Z,9.54
2022-11-14T18:01:39.446Z,9.53
2022-11-14T18:04:06.772Z,9.54
2022-11-14T18:06:34.236Z,9.52
2022-11-14T18:09:05.039Z,9.51
2022-11-14T18:11:32.189Z,9.50
2022-11-14T18:13:58.942Z,9.51
2022-11-14T18:16:31.416Z,9.53
2022-11-14T18:19:06.581Z,9.54
2022-11-14T18:21:33.307Z,9.56
2022-11-14T18:24:00.636Z,9.55
2022-11-14T18:26:29.093Z,9.57
2022-11-14T18:29:01.870Z,9.60
2022-11-14T18:31:29.059Z,9.61
2022-11-14T18:33:56.599Z,9.59
2022-11-14T18:36:24.120Z,9.61
2022-11-14T18:38:51.111Z,9.62
2022-11-14T18:41:21.069Z,9.66
2022-11-14T18:43:49.675Z,9.69
2022-11-14T18:46:24.577Z,9.72
2022-11-14T18:48:57.157Z,9.76
2022-11-14T18:51:27.452Z,9.79
2022-11-14T18:53:56.426Z,9.82
2022-11-14T18:56:25.485Z,9.88
2022-11-14T18:58:55.597Z,9.92
2022-11-14T19:01:29.354Z,9.96
2022-11-14T19:04:01.166Z,10.00
2022-11-14T19:06:29.840Z,10.02
2022-11-14T19:09:22.850Z,10.05
2022-11-14T19:12:08.668Z,10.08
2022-11-14T19:14:35.970Z,10.13
2022-11-14T19:17:07.029Z,10.19
2022-11-14T19:19:33.884Z,10.26
2022-11-14T19:22:00.688Z,10.32
2022-11-14T19:24:27.410Z,10.41
2022-11-14T19:26:54.169Z,10.49
2022-11-14T19:29:20.898Z,10.55
2022-11-14T19:31:47.691Z,10.60
2022-11-14T19:34:15.116Z,10.63
2022-11-14T19:39:28.927Z,10.65
2022-11-14T19:41:56.096Z,10.67
2022-11-14T19:44:22.827Z,10.68
2022-11-14T19:46:49.597Z,10.70
2022-11-14T19:49:16.320Z,10.73
2022-11-14T19:51:43.132Z,10.78
2022-11-14T19:54:10.992Z,10.82
2022-11-14T19:56:37.887Z,10.85
2022-11-14T19:59:11.068Z,10.87
2022-11-14T20:01:42.206Z,10.92
2022-11-14T20:04:11.515Z,10.97
2022-11-14T20:06:38.251Z,10.98
2022-11-14T20:09:09.204Z,11.00
2022-11-14T20:11:36.249Z,11.00
2022-11-14T20:14:03.008Z,11.02
2022-11-14T20:16:33.191Z,11.05
2022-11-14T20:19:01.778Z,11.07
2022-11-14T20:21:30.720Z,11.10
2022-11-14T20:23:57.781Z,11.11
2022-11-14T20:26:26.004Z,11.14
2022-11-14T20:28:54.074Z,11.15
2022-11-14T20:31:26.483Z,11.16
2022-11-14T20:33:54.114Z,11.18
2022-11-14T20:36:24.217Z,11.19
2022-11-14T20:38:51.592Z,11.21
2022-11-14T20:41:19.038Z,11.22
2022-11-14T20:43:45.853Z,11.25
2022-11-14T20:46:15.376Z,11.26
2022-11-14T20:48:42.910Z,11.28
2022-11-14T20:51:14.362Z,11.28
2022-11-14T20:53:41.987Z,11.29
2022-11-14T20:56:09.911Z,11.30
2022-11-14T20:58:40.435Z,11.31
2022-11-14T21:01:07.727Z,11.30
2022-11-14T21:03:35.251Z,11.30
2022-11-14T21:06:03.090Z,11.26
2022-11-14T21:08:30.569Z,11.24
2022-11-14T21:11:05.465Z,11.22
2022-11-14T21:13:53.923Z,11.19
2022-11-14T21:16:21.003Z,11.17
2022-11-14T21:18:48.357Z,11.12
2022-11-14T21:21:18.485Z,11.07
2022-11-14T21:23:46.823Z,11.04
2022-11-14T21:26:25.998Z,10.99
2022-11-14T21:28:55.149Z,10.96
2022-11-14T21:31:33.530Z,10.92
2022-11-14T21:34:02.325Z,10.90
2022-11-14T21:36:46.676Z,10.86
2022-11-14T21:39:15.909Z,10.84
2022-11-14T21:41:44.525Z,10.82
2022-11-14T21:44:15.516Z,10.77
2022-11-14T21:46:43.324Z,10.76
2022-11-14T21:49:10.338Z,10.74
2022-11-14T21:51:37.199Z,10.73
2022-11-14T21:54:05.249Z,10.72
2022-11-14T21:56:34.092Z,10.71
2022-11-14T21:59:16.023Z,10.68
2022-11-14T22:02:03.425Z,10.66
2022-11-14T22:04:31.490Z,10.64
2022-11-14T22:06:59.481Z,10.64
2022-11-14T22:09:28.091Z,10.63
2022-11-14T22:11:55.466Z,10.65
2022-11-14T22:14:23.009Z,10.65
2022-11-14T22:16:49.748Z,10.67
2022-11-14T22:19:16.514Z,10.67
2022-11-14T22:21:43.239Z,10.68
2022-11-14T22:24:09.948Z,10.69
2022-11-14T22:26:40.009Z,10.67
2022-11-14T22:29:07.755Z,10.69
2022-11-14T22:31:34.922Z,10.68
2022-11-14T22:34:01.669Z,10.67
2022-11-14T22:36:28.666Z,10.68
2022-11-14T22:38:56.999Z,10.69
2022-11-14T22:41:31.944Z,10.70
2022-11-14T22:43:59.413Z,10.72
2022-11-14T22:46:27.487Z,10.72
2022-11-14T22:48:55.526Z,10.72
2022-11-14T22:51:28.364Z,10.72
2022-11-14T22:53:58.506Z,10.74
2022-11-14T22:56:28.417Z,10.76
2022-11-14T22:58:56.587Z,10.77
2022-11-14T23:01:31.488Z,10.79
2022-11-14T23:04:04.967Z,10.79
2022-11-14T23:06:33.954Z,10.79
2022-11-14T23:09:02.437Z,10.80
2022-11-14T23:11:31.729Z,10.81
2022-11-14T23:14:00.301Z,10.82
2022-11-14T23:16:32.628Z,10.84
2022-11-14T23:19:02.015Z,10.84
2022-11-14T23:21:35.980Z,10.84
2022-11-14T23:24:06.960Z,10.85
2022-11-14T23:26:33.976Z,10.85
2022-11-14T23:29:00.985Z,10.87
2022-11-14T23:31:27.864Z,10.88
2022-11-14T23:33:55.936Z,10.87
2022-11-14T23:36:22.903Z,10.90
2022-11-14T23:38:53.135Z,10.91
2022-11-14T23:41:22.922Z,10.89
2022-11-14T23:43:50.385Z,10.90
2022-11-14T23:46:17.102Z,10.90
2022-11-14T23:48:44.871Z,10.91
2022-11-14T23:51:13.729Z,10.90
2022-11-14T23:53:41.120Z,10.91
2022-11-14T23:56:12.804Z,10.91
2022-11-14T23:58:39.701Z,10.93
